Time;durP1;ratioP1;P1;durP2;ratioP2;P2;SDS_P1;SDS_P2;PMS_P1;PMS_P2;Temp;Humidity;BMP_temperature;BMP_pressure;BME280_temperature;BME280_humidity;BME280_pressure;Samples;Min_cycle;Max_cycle;Signal;HPM_P1;HPM_P2
2022/11/21 00:00:09;;;;;;;0.70;0.38;;;;;;;;;;5012981;28;20053;-65
2022/11/21 00:02:36;;;;;;;0.30;0.30;;;;;;;;;;5013296;28;20088;-65
2022/11/21 00:05:03;;;;;;;0.20;0.20;;;;;;;;;;5013523;28;20417;-66
2022/11/21 00:07:30;;;;;;;0.38;0.38;;;;;;;;;;5013331;28;20054;-65
2022/11/21 00:09:57;;;;;;;0.82;0.15;;;;;;;;;;5027927;28;20045;-65
2022/11/21 00:12:24;;;;;;;1.17;0.45;;;;;;;;;;5024498;28;20054;-65
2022/11/21 00:14:50;;;;;;;1.58;0.30;;;;;;;;;;5013240;28;20551;-65
2022/11/21 00:17:17;;;;;;;1.20;0.40;;;;;;;;;;5013048;28;20050;-66
2022/11/21 00:19:43;;;;;;;0.40;0.40;;;;;;;;;;5012631;28;20049;-66
2022/11/21 00:22:10;;;;;;;1.63;0.45;;;;;;;;;;5013284;28;20049;-66
2022/11/21 00:24:37;;;;;;;0.35;0.35;;;;;;;;;;5013124;28;20493;-65
2022/11/21 00:27:03;;;;;;;0.43;0.40;;;;;;;;;;5012849;28;20520;-65
2022/11/21 00:29:30;;;;;;;1.98;0.57;;;;;;;;;;5012331;28;20053;-65
2022/11/21 00:31:57;;;;;;;0.40;0.40;;;;;;;;;;5012852;28;20050;-65
2022/11/21 00:34:23;;;;;;;0.38;0.35;;;;;;;;;;5012837;28;20504;-66
2022/11/21 00:36:50;;;;;;;0.90;0.20;;;;;;;;;;5012969;28;20411;-65
2022/11/21 00:39:17;;;;;;;0.85;0.40;;;;;;;;;;5012211;28;20054;-65
2022/11/21 00:41:44;;;;;;;0.90;0.32;;;;;;;;;;5012714;28;20145;-65
2022/11/21 00:44:11;;;;;;;0.50;0.30;;;;;;;;;;5012557;28;20054;-65
2022/11/21 00:46:38;;;;;;;0.50;0.20;;;;;;;;;;5012492;28;20061;-65
2022/11/21 00:49:04;;;;;;;1.23;0.20;;;;;;;;;;5012123;28;20049;-65
2022/11/21 00:51:31;;;;;;;0.85;0.47;;;;;;;;;;5012629;28;20050;-65
2022/11/21 00:53:58;;;;;;;0.30;0.20;;;;;;;;;;5012488;28;20428;-65
2022/11/21 00:56:24;;;;;;;0.40;0.30;;;;;;;;;;5012248;28;20057;-66
2022/11/21 00:58:51;;;;;;;0.40;0.20;;;;;;;;;;5011663;28;20104;-65
2022/11/21 01:01:17;;;;;;;1.60;0.40;;;;;;;;;;5012592;28;20467;-65
2022/11/21 01:03:45;;;;;;;0.75;0.30;;;;;;;;;;5012365;28;20092;-65
2022/11/21 01:06:13;;;;;;;1.33;0.35;;;;;;;;;;5012288;28;20108;-65
2022/11/21 01:08:41;;;;;;;1.40;0.35;;;;;;;;;;5011562;28;20054;-65
2022/11/21 01:11:12;;;;;;;0.95;0.40;;;;;;;;;;5012342;28;20046;-65
2022/11/21 01:13:39;;;;;;;0.10;0.10;;;;;;;;;;5012189;28;20460;-65
2022/11/21 01:16:07;;;;;;;2.47;0.20;;;;;;;;;;5012018;28;20054;-65
2022/11/21 01:18:34;;;;;;;0.30;0.20;;;;;;;;;;4994027;28;20054;-65
2022/11/21 01:21:07;;;;;;;1.10;0.32;;;;;;;;;;5012530;28;20050;-65
2022/11/21 01:23:34;;;;;;;0.82;0.50;;;;;;;;;;4994379;28;20100;-65
2022/11/21 01:26:05;;;;;;;0.20;0.20;;;;;;;;;;5011781;28;20049;-65
2022/11/21 01:28:32;;;;;;;0.50;0.13;;;;;;;;;;5011352;28;20485;-65
2022/11/21 01:31:09;;;;;;;0.57;0.20;;;;;;;;;;5012045;28;20096;-66
2022/11/21 01:33:36;;;;;;;0.32;0.15;;;;;;;;;;5012050;28;20054;-65
2022/11/21 01:36:30;;;;;;;1.65;0.25;;;;;;;;;;5011962;28;20116;-65
2022/11/21 01:38:58;;;;;;;1.88;0.73;;;;;;;;;;5009454;28;20049;-65
2022/11/21 01:41:34;;;;;;;1.15;0.47;;;;;;;;;;5011777;28;20132;-65
2022/11/21 01:44:05;;;;;;;1.85;0.50;;;;;;;;;;5011888;28;20100;-64
2022/11/21 01:46:31;;;;;;;2.35;0.30;;;;;;;;;;4994477;28;20104;-66
2022/11/21 01:49:02;;;;;;;2.17;0.45;;;;;;;;;;5010934;28;20512;-66
2022/11/21 01:51:29;;;;;;;0.17;0.17;;;;;;;;;;5011650;28;20492;-66
2022/11/21 01:54:02;;;;;;;0.82;0.30;;;;;;;;;;5011812;28;20056;-65
2022/11/21 01:56:29;;;;;;;;;;;;;;;;;;4994707;28;20046;-65
2022/11/21 01:58:56;;;;;;;1.27;0.35;;;;;;;;;;5010938;28;19928;-65
2022/11/21 02:01:23;;;;;;;1.73;0.30;;;;;;;;;;4978161;28;20057;-65
2022/11/21 02:03:50;;;;;;;3.03;0.47;;;;;;;;;;5011604;28;20049;-65
2022/11/21 02:06:16;;;;;;;2.97;0.40;;;;;;;;;;5012988;28;20054;-65
2022/11/21 02:08:43;;;;;;;2.38;0.47;;;;;;;;;;4997259;28;20455;-65
2022/11/21 02:11:32;;;;;;;0.93;0.22;;;;;;;;;;4981889;28;20049;-66
2022/11/21 02:13:59;;;;;;;1.00;0.50;;;;;;;;;;5015267;28;20054;-65
2022/11/21 02:16:26;;;;;;;1.30;0.40;;;;;;;;;;4998239;28;20060;-66
2022/11/21 02:18:53;;;;;;;2.17;0.52;;;;;;;;;;4997169;28;20093;-65
2022/11/21 02:21:44;;;;;;;1.05;0.35;;;;;;;;;;5015266;28;20104;-65
2022/11/21 02:24:32;;;;;;;1.90;0.40;;;;;;;;;;4998148;28;20050;-65
2022/11/21 02:26:59;;;;;;;1.95;0.30;;;;;;;;;;4982738;28;20084;-65
2022/11/21 02:29:26;;;;;;;1.65;0.30;;;;;;;;;;5014276;28;20108;-66
2022/11/21 02:31:53;;;;;;;2.80;0.70;;;;;;;;;;4997745;28;20042;-66
2022/11/21 02:34:19;;;;;;;2.35;0.60;;;;;;;;;;5014899;28;20054;-65
2022/11/21 02:36:46;;;;;;;1.35;0.50;;;;;;;;;;5014663;28;20057;-65
2022/11/21 02:39:33;;;;;;;2.63;0.47;;;;;;;;;;5014377;28;20467;-66
2022/11/21 02:42:07;;;;;;;0.60;0.43;;;;;;;;;;4997531;28;20057;-65
2022/11/21 02:44:57;;;;;;;1.88;0.55;;;;;;;;;;4997520;28;20054;-66
2022/11/21 02:47:23;;;;;;;0.80;0.40;;;;;;;;;;5005788;28;20084;-65
2022/11/21 02:50:00;;;;;;;2.20;0.85;;;;;;;;;;5014422;28;20046;-65
2022/11/21 02:52:27;;;;;;;1.20;0.40;;;;;;;;;;4981290;28;20567;-65
2022/11/21 02:54:54;;;;;;;1.60;0.40;;;;;;;;;;5014723;28;20069;-65
2022/11/21 02:57:20;;;;;;;3.47;0.70;;;;;;;;;;5013499;28;20081;-66
2022/11/21 02:59:47;;;;;;;2.13;0.45;;;;;;;;;;5013212;28;20077;-65
2022/11/21 03:02:14;;;;;;;0.60;0.30;;;;;;;;;;5013597;28;20070;-65
2022/11/21 03:04:40;;;;;;;0.95;0.15;;;;;;;;;;5013605;28;20092;-65
2022/11/21 03:07:07;;;;;;;2.00;0.30;;;;;;;;;;5013201;28;20538;-66
2022/11/21 03:09:33;;;;;;;1.05;0.38;;;;;;;;;;5012717;28;20060;-65
2022/11/21 03:12:05;;;;;;;2.83;0.55;;;;;;;;;;5013162;28;20440;-65
2022/11/21 03:14:33;;;;;;;0.63;0.25;;;;;;;;;;5013423;28;20471;-65
2022/11/21 03:16:59;;;;;;;1.08;0.35;;;;;;;;;;5012418;28;20081;-66
2022/11/21 03:19:26;;;;;;;0.50;0.30;;;;;;;;;;5011908;28;20414;-65
2022/11/21 03:21:52;;;;;;;1.67;0.30;;;;;;;;;;5012883;28;20156;-65
2022/11/21 03:24:19;;;;;;;1.08;0.40;;;;;;;;;;5013655;28;20119;-65
2022/11/21 03:26:46;;;;;;;7.47;1.10;;;;;;;;;;5012808;28;20132;-66
2022/11/21 03:29:12;;;;;;;1.33;0.32;;;;;;;;;;5012514;28;20511;-65
2022/11/21 03:31:39;;;;;;;0.90;0.38;;;;;;;;;;5013083;28;20409;-65
2022/11/21 03:34:06;;;;;;;0.60;0.30;;;;;;;;;;5012943;28;20050;-66
2022/11/21 03:36:32;;;;;;;0.50;0.22;;;;;;;;;;5012764;28;20108;-66
2022/11/21 03:38:59;;;;;;;1.17;0.30;;;;;;;;;;5012224;28;20054;-65
2022/11/21 03:41:28;;;;;;;0.57;0.20;;;;;;;;;;5012609;28;20141;-65
2022/11/21 03:43:59;;;;;;;0.40;0.20;;;;;;;;;;5012715;28;20089;-66
2022/11/21 03:46:26;;;;;;;2.00;0.17;;;;;;;;;;5012619;28;20483;-66
2022/11/21 03:48:53;;;;;;;0.73;0.22;;;;;;;;;;5012111;28;20049;-66
2022/11/21 03:51:20;;;;;;;1.42;0.20;;;;;;;;;;5012393;28;20563;-66
2022/11/21 03:53:47;;;;;;;0.30;0.28;;;;;;;;;;5013037;28;20484;-66
2022/11/21 03:56:14;;;;;;;0.63;0.30;;;;;;;;;;4972882;28;1148553;-66
2022/11/21 03:58:40;;;;;;;0.57;0.17;;;;;;;;;;5012949;28;20046;-66
2022/11/21 04:01:07;;;;;;;0.52;0.20;;;;;;;;;;5013531;28;20277;-66
2022/11/21 04:03:34;;;;;;;0.65;0.17;;;;;;;;;;5013170;28;20049;-65
2022/11/21 04:06:00;;;;;;;1.23;0.25;;;;;;;;;;5013250;28;20488;-66
2022/11/21 04:08:27;;;;;;;0.20;0.20;;;;;;;;;;5012514;28;20077;-65
2022/11/21 04:10:54;;;;;;;0.43;0.20;;;;;;;;;;5013068;28;20100;-66
2022/11/21 04:13:20;;;;;;;1.92;0.20;;;;;;;;;;5013099;28;20088;-65
2022/11/21 04:15:47;;;;;;;0.32;0.30;;;;;;;;;;5013010;28;20085;-66
2022/11/21 04:18:13;;;;;;;1.83;0.75;;;;;;;;;;5012487;28;20481;-66
2022/11/21 04:20:40;;;;;;;0.30;0.30;;;;;;;;;;5013107;28;20454;-65
2022/11/21 04:23:07;;;;;;;1.27;0.17;;;;;;;;;;5012844;28;20559;-65
2022/11/21 04:25:33;;;;;;;0.95;0.30;;;;;;;;;;5012817;28;20081;-66
2022/11/21 04:28:01;;;;;;;1.35;0.60;;;;;;;;;;5012622;28;20069;-65
2022/11/21 04:30:28;;;;;;;0.22;0.10;;;;;;;;;;5012568;28;20050;-65
2022/11/21 04:32:55;;;;;;;0.20;0.20;;;;;;;;;;5012705;28;20141;-66
2022/11/21 04:35:23;;;;;;;1.77;0.40;;;;;;;;;;5012600;28;20501;-65
2022/11/21 04:37:50;;;;;;;1.92;0.40;;;;;;;;;;5012461;28;20054;-66
2022/11/21 04:40:16;;;;;;;0.63;0.22;;;;;;;;;;5013461;28;20461;-66
2022/11/21 04:42:44;;;;;;;0.45;0.20;;;;;;;;;;5013159;28;20056;-65
2022/11/21 04:45:11;;;;;;;0.40;0.40;;;;;;;;;;5012648;28;20053;-65
2022/11/21 04:47:39;;;;;;;1.58;0.60;;;;;;;;;;5013253;28;20061;-65
2022/11/21 04:50:06;;;;;;;1.08;0.60;;;;;;;;;;5012032;28;20058;-66
2022/11/21 04:52:34;;;;;;;0.47;0.43;;;;;;;;;;5012593;28;20046;-65
2022/11/21 04:55:00;;;;;;;0.35;0.30;;;;;;;;;;5012577;28;20042;-65
2022/11/21 04:57:27;;;;;;;1.98;0.32;;;;;;;;;;5037790;23;20045;-65
2022/11/21 04:59:54;;;;;;;0.88;0.40;;;;;;;;;;5013959;28;20049;-64
2022/11/21 05:02:21;;;;;;;0.60;0.30;;;;;;;;;;5032066;28;20236;-66
2022/11/21 05:04:48;;;;;;;1.02;0.45;;;;;;;;;;5014552;28;20050;-65
2022/11/21 05:07:14;;;;;;;0.85;0.35;;;;;;;;;;5003024;28;20106;-65
2022/11/21 05:09:41;;;;;;;0.68;0.30;;;;;;;;;;5011813;28;20050;-66
2022/11/21 05:14:54;;;;;;;0.32;0.30;;;;;;;;;;5012293;28;20058;-65
2022/11/21 05:17:21;;;;;;;2.80;0.47;;;;;;;;;;5011836;28;20133;-65
2022/11/21 05:19:48;;;;;;;0.90;0.60;;;;;;;;;;5011652;28;20393;-65
2022/11/21 05:22:14;;;;;;;1.17;0.60;;;;;;;;;;5012202;28;20092;-68
2022/11/21 05:24:41;;;;;;;1.60;0.50;;;;;;;;;;5012202;28;20153;-66
2022/11/21 05:27:07;;;;;;;2.22;0.77;;;;;;;;;;5011991;28;20568;-67
2022/11/21 05:29:34;;;;;;;2.90;0.52;;;;;;;;;;5011406;28;20050;-68
2022/11/21 05:32:01;;;;;;;3.13;0.70;;;;;;;;;;4994658;28;20088;-68
2022/11/21 05:34:28;;;;;;;0.52;0.45;;;;;;;;;;5012122;28;20483;-66
2022/11/21 05:36:56;;;;;;;1.08;0.40;;;;;;;;;;5012042;28;20093;-66
2022/11/21 05:39:22;;;;;;;2.17;0.57;;;;;;;;;;5011113;28;20558;-66
2022/11/21 05:41:49;;;;;;;0.70;0.60;;;;;;;;;;5014025;28;20132;-67
2022/11/21 05:44:16;;;;;;;1.10;0.73;;;;;;;;;;5015728;28;20096;-67
2022/11/21 05:46:42;;;;;;;0.70;0.52;;;;;;;;;;5015939;28;20136;-66
2022/11/21 05:49:09;;;;;;;1.27;0.70;;;;;;;;;;5015008;28;20092;-67
2022/11/21 05:51:36;;;;;;;1.33;0.93;;;;;;;;;;5015511;28;20050;-69
2022/11/21 05:54:02;;;;;;;2.10;0.73;;;;;;;;;;5015751;28;20046;-66
2022/11/21 05:56:29;;;;;;;2.30;0.60;;;;;;;;;;5016246;28;20045;-66
2022/11/21 05:58:57;;;;;;;1.08;0.50;;;;;;;;;;5014895;28;20505;-69
2022/11/21 06:04:09;;;;;;;4.70;0.85;;;;;;;;;;5015220;28;20504;-66
2022/11/21 06:06:36;;;;;;;1.33;0.50;;;;;;;;;;5015396;28;20081;-66
2022/11/21 06:09:03;;;;;;;0.98;0.70;;;;;;;;;;5014571;28;20112;-68
2022/11/21 06:11:30;;;;;;;1.63;0.80;;;;;;;;;;5015115;28;20133;-66
2022/11/21 06:13:57;;;;;;;1.95;0.70;;;;;;;;;;5015325;28;20042;-66
2022/11/21 06:16:23;;;;;;;1.33;0.60;;;;;;;;;;5015072;28;20136;-66
2022/11/21 06:18:51;;;;;;;2.15;0.80;;;;;;;;;;5014461;28;20144;-66
2022/11/21 06:21:25;;;;;;;3.33;0.60;;;;;;;;;;5021470;28;20084;-66
2022/11/21 06:23:54;;;;;;;1.85;0.60;;;;;;;;;;5022430;28;20148;-66
2022/11/21 06:26:22;;;;;;;2.53;0.90;;;;;;;;;;5006720;28;20047;-67
2022/11/21 06:28:50;;;;;;;1.55;0.55;;;;;;;;;;5017717;28;20097;-66
2022/11/21 06:31:18;;;;;;;1.63;0.63;;;;;;;;;;5029217;28;20375;-68
2022/11/21 06:33:45;;;;;;;1.25;0.63;;;;;;;;;;5017231;28;20133;-68
2022/11/21 06:36:14;;;;;;;3.83;0.90;;;;;;;;;;5014729;28;20680;-68
2022/11/21 06:38:41;;;;;;;3.13;0.90;;;;;;;;;;5014195;28;20142;-68
2022/11/21 06:41:19;;;;;;;2.47;1.05;;;;;;;;;;5014996;28;20050;-67
2022/11/21 06:43:46;;;;;;;2.40;0.95;;;;;;;;;;5014794;28;20050;-67
2022/11/21 06:46:13;;;;;;;3.20;1.00;;;;;;;;;;5014356;28;20132;-65
2022/11/21 06:48:40;;;;;;;2.22;0.80;;;;;;;;;;5013878;28;20486;-65
2022/11/21 06:51:18;;;;;;;4.10;1.20;;;;;;;;;;4997059;28;20054;-65
2022/11/21 06:53:46;;;;;;;3.20;1.27;;;;;;;;;;4998453;28;20045;-65
2022/11/21 06:56:15;;;;;;;4.47;1.30;;;;;;;;;;5014254;28;20085;-66
2022/11/21 06:58:42;;;;;;;3.22;1.30;;;;;;;;;;5011960;28;20054;-65
2022/11/21 07:01:09;;;;;;;8.50;1.45;;;;;;;;;;5012241;28;20093;-66
2022/11/21 07:03:36;;;;;;;2.63;1.30;;;;;;;;;;5012109;28;20504;-66
2022/11/21 07:06:03;;;;;;;3.78;1.20;;;;;;;;;;5012024;28;20101;-65
2022/11/21 07:08:31;;;;;;;2.03;1.20;;;;;;;;;;5011671;28;20571;-65
2022/11/21 07:11:02;;;;;;;2.25;1.27;;;;;;;;;;5012189;28;20140;-65
2022/11/21 07:13:48;;;;;;;2.50;1.00;;;;;;;;;;5011823;28;20061;-66
2022/11/21 07:16:15;;;;;;;3.40;1.17;;;;;;;;;;5011840;28;20548;-66
2022/11/21 07:18:41;;;;;;;3.58;1.10;;;;;;;;;;5011357;28;20089;-66
2022/11/21 07:21:08;;;;;;;2.03;0.90;;;;;;;;;;5012274;28;20165;-66
2022/11/21 07:23:35;;;;;;;2.08;1.10;;;;;;;;;;5012063;28;20488;-66
2022/11/21 07:26:06;;;;;;;3.47;1.80;;;;;;;;;;5011627;28;20092;-66
2022/11/21 07:28:33;;;;;;;2.55;0.98;;;;;;;;;;5011108;28;20093;-65
2022/11/21 07:31:00;;;;;;;8.25;3.90;;;;;;;;;;5011934;28;20116;-65
2022/11/21 07:33:27;;;;;;;6.07;2.78;;;;;;;;;;5011731;28;20145;-66
2022/11/21 07:35:56;;;;;;;5.75;2.65;;;;;;;;;;5011823;28;20058;-65
2022/11/21 07:38:24;;;;;;;10.48;3.70;;;;;;;;;;5010916;28;20077;-66
2022/11/21 07:40:51;;;;;;;11.63;3.80;;;;;;;;;;5011492;28;20093;-67
2022/11/21 07:43:17;;;;;;;5.68;3.05;;;;;;;;;;5011335;28;20485;-65
2022/11/21 07:45:44;;;;;;;7.80;3.60;;;;;;;;;;5011096;28;20053;-65
2022/11/21 07:48:11;;;;;;;4.55;2.13;;;;;;;;;;5010867;28;20046;-66
2022/11/21 07:50:38;;;;;;;3.17;1.52;;;;;;;;;;5012525;28;20501;-66
2022/11/21 07:53:05;;;;;;;3.30;2.10;;;;;;;;;;5013719;28;20104;-67
2022/11/21 07:55:32;;;;;;;4.18;1.90;;;;;;;;;;5013374;28;20089;-66
2022/11/21 07:58:08;;;;;;;3.72;1.65;;;;;;;;;;4996212;28;20057;-66
2022/11/21 08:00:36;;;;;;;3.95;2.22;;;;;;;;;;5013211;28;20045;-66
2022/11/21 08:03:04;;;;;;;3.85;1.58;;;;;;;;;;5013010;28;20088;-66
2022/11/21 08:05:30;;;;;;;2.33;1.67;;;;;;;;;;5012820;28;20054;-66
2022/11/21 08:07:57;;;;;;;3.63;1.40;;;;;;;;;;5012411;28;20138;-68
2022/11/21 08:10:23;;;;;;;2.58;1.27;;;;;;;;;;5012980;28;20055;-67
2022/11/21 08:12:50;;;;;;;2.33;1.17;;;;;;;;;;5013006;28;20510;-66
2022/11/21 08:15:17;;;;;;;2.97;0.98;;;;;;;;;;5012936;28;20054;-66
2022/11/21 08:17:44;;;;;;;2.38;1.33;;;;;;;;;;5012805;28;20425;-67
2022/11/21 08:20:10;;;;;;;2.17;1.10;;;;;;;;;;5011961;28;20062;-66
2022/11/21 08:22:40;;;;;;;4.55;1.83;;;;;;;;;;5012710;28;20464;-66
2022/11/21 08:25:08;;;;;;;5.28;1.10;;;;;;;;;;5013182;28;20050;-67
2022/11/21 08:27:36;;;;;;;2.83;0.90;;;;;;;;;;4995576;28;20087;-66
2022/11/21 08:30:05;;;;;;;3.03;1.23;;;;;;;;;;5011790;28;20081;-66
2022/11/21 08:32:32;;;;;;;6.78;1.27;;;;;;;;;;5012715;28;20085;-67
2022/11/21 08:34:59;;;;;;;2.88;1.10;;;;;;;;;;5011913;28;20081;-73
2022/11/21 08:37:28;;;;;;;4.47;1.42;;;;;;;;;;5005791;28;20049;-71
2022/11/21 08:39:57;;;;;;;3.45;1.60;;;;;;;;;;5010747;28;20142;-66
2022/11/21 08:42:24;;;;;;;4.55;1.45;;;;;;;;;;5011187;28;20137;-68
2022/11/21 08:44:51;;;;;;;3.70;1.70;;;;;;;;;;5010602;28;20099;-73
2022/11/21 08:47:19;;;;;;;3.75;1.55;;;;;;;;;;4992779;28;20480;-66
2022/11/21 08:49:46;;;;;;;3.53;1.40;;;;;;;;;;5010064;28;20049;-69
2022/11/21 08:52:16;;;;;;;4.70;1.40;;;;;;;;;;5011404;28;20112;-70
2022/11/21 08:54:43;;;;;;;3.25;1.30;;;;;;;;;;5011345;28;20049;-70
2022/11/21 08:57:10;;;;;;;5.32;1.52;;;;;;;;;;5009585;28;20557;-70
2022/11/21 08:59:37;;;;;;;3.97;1.33;;;;;;;;;;4992477;28;20077;-70
2022/11/21 09:02:04;;;;;;;3.67;1.80;;;;;;;;;;5011093;28;20050;-70
2022/11/21 09:04:30;;;;;;;5.15;1.30;;;;;;;;;;5010807;28;20060;-69
2022/11/21 09:06:57;;;;;;;3.25;1.33;;;;;;;;;;5010666;28;20050;-67
2022/11/21 09:09:24;;;;;;;2.20;1.23;;;;;;;;;;5010220;28;20432;-66
2022/11/21 09:11:51;;;;;;;7.60;1.27;;;;;;;;;;5010518;28;20065;-67
2022/11/21 09:19:48;;;;;;;5.28;1.15;;;;;;;;;;5009972;28;20046;-66
2022/11/21 09:22:14;;;;;;;4.45;1.55;;;;;;;;;;5010589;28;20111;-66
2022/11/21 09:24:41;;;;;;;4.45;1.05;;;;;;;;;;5010275;28;20045;-67
2022/11/21 09:27:08;;;;;;;4.43;1.35;;;;;;;;;;5010792;28;20085;-67
2022/11/21 09:29:34;;;;;;;4.43;1.48;;;;;;;;;;5010236;28;20144;-66
2022/11/21 09:32:01;;;;;;;8.45;1.63;;;;;;;;;;5010403;28;20141;-66
2022/11/21 09:34:27;;;;;;;5.80;1.85;;;;;;;;;;5009928;28;20489;-67
2022/11/21 09:36:55;;;;;;;4.35;1.15;;;;;;;;;;5010722;28;20045;-67
2022/11/21 09:39:22;;;;;;;4.97;1.38;;;;;;;;;;5010294;28;20046;-66
2022/11/21 09:42:11;;;;;;;3.60;1.08;;;;;;;;;;5011546;28;20096;-66
2022/11/21 09:45:13;;;;;;;5.40;1.08;;;;;;;;;;4994323;28;20123;-67
2022/11/21 09:47:44;;;;;;;4.70;1.08;;;;;;;;;;5011605;28;20452;-67
2022/11/21 09:50:11;;;;;;;5.57;1.20;;;;;;;;;;5011022;28;20490;-67
2022/11/21 09:52:46;;;;;;;6.53;1.00;;;;;;;;;;5011758;28;20568;-66
2022/11/21 09:55:34;;;;;;;5.43;1.17;;;;;;;;;;4995232;28;20050;-67
2022/11/21 09:58:28;;;;;;;3.00;1.00;;;;;;;;;;5010934;28;20136;-67
2022/11/21 10:00:55;;;;;;;3.42;0.93;;;;;;;;;;4961370;28;20054;-67
2022/11/21 10:03:24;;;;;;;5.25;1.02;;;;;;;;;;5011543;28;20053;-67
2022/11/21 10:05:57;;;;;;;9.40;1.17;;;;;;;;;;4978277;28;20089;-67
2022/11/21 10:08:33;;;;;;;6.60;1.48;;;;;;;;;;4978279;28;20093;-67
2022/11/21 10:11:04;;;;;;;4.10;1.40;;;;;;;;;;4993821;28;20054;-67
2022/11/21 10:14:10;;;;;;;5.47;1.52;;;;;;;;;;4996061;28;20046;-67
2022/11/21 10:16:54;;;;;;;2.67;1.05;;;;;;;;;;4993951;28;20087;-67
2022/11/21 10:19:24;;;;;;;3.03;1.30;;;;;;;;;;4977663;28;20054;-66
2022/11/21 10:22:12;;;;;;;2.40;1.20;;;;;;;;;;5011256;28;20058;-71
2022/11/21 10:24:55;;;;;;;4.88;1.27;;;;;;;;;;5008733;28;20497;-72
2022/11/21 10:27:36;;;;;;;4.07;1.20;;;;;;;;;;4993307;28;20100;-72
2022/11/21 10:30:13;;;;;;;3.83;1.45;;;;;;;;;;4996264;28;20359;-73
2022/11/21 10:33:03;;;;;;;3.05;1.38;;;;;;;;;;4980817;28;20093;-66
2022/11/21 10:35:47;;;;;;;8.88;2.53;;;;;;;;;;5014078;28;20085;-67
2022/11/21 10:38:24;;;;;;;4.00;1.60;;;;;;;;;;4996040;28;20057;-66
2022/11/21 10:40:54;;;;;;;5.00;1.60;;;;;;;;;;5013374;28;20592;-68
2022/11/21 10:46:16;;;;;;;3.70;1.00;;;;;;;;;;5005779;28;20062;-74
2022/11/21 10:48:49;;;;;;;3.22;0.95;;;;;;;;;;5001193;28;20593;-73
2022/11/21 10:51:42;;;;;;;3.85;1.58;;;;;;;;;;5004555;28;20085;-74
2022/11/21 10:57:00;;;;;;;7.32;1.30;;;;;;;;;;4988788;28;20054;-67
2022/11/21 10:59:28;;;;;;;5.18;1.10;;;;;;;;;;4984810;28;20136;-66
2022/11/21 11:01:59;;;;;;;2.95;0.70;;;;;;;;;;5023120;28;20038;-66
2022/11/21 11:04:29;;;;;;;3.40;0.77;;;;;;;;;;5017327;28;20050;-67
2022/11/21 11:07:26;;;;;;;3.92;0.85;;;;;;;;;;5000619;28;20054;-67
2022/11/21 11:10:13;;;;;;;5.15;1.20;;;;;;;;;;5020723;28;20058;-65
2022/11/21 11:15:30;;;;;;;4.88;1.13;;;;;;;;;;5023386;28;20049;-66
2022/11/21 11:18:01;;;;;;;3.22;0.77;;;;;;;;;;4988304;28;20158;-65
2022/11/21 11:20:39;;;;;;;4.68;1.10;;;;;;;;;;5019345;28;20046;-66
2022/11/21 11:23:16;;;;;;;3.00;1.10;;;;;;;;;;5023570;28;20054;-74
2022/11/21 11:25:48;;;;;;;3.22;0.98;;;;;;;;;;5006459;28;20065;-75
2022/11/21 11:28:14;;;;;;;7.40;0.88;;;;;;;;;;5028561;28;20029;-75
2022/11/21 11:30:41;;;;;;;3.72;0.75;;;;;;;;;;5027463;28;20042;-74
2022/11/21 11:33:34;;;;;;;2.25;0.73;;;;;;;;;;4990007;28;20043;-72
2022/11/21 11:36:11;;;;;;;3.65;1.23;;;;;;;;;;5008112;28;20069;-64
2022/11/21 11:38:37;;;;;;;5.85;1.98;;;;;;;;;;5021915;28;20045;-64
2022/11/21 11:41:15;;;;;;;3.25;1.38;;;;;;;;;;4989055;28;20038;-73
2022/11/21 11:52:33;;;;;;;7.65;1.67;;;;;;;;;;5001797;28;20096;-71
2022/11/21 11:55:02;;;;;;;2.40;0.60;;;;;;;;;;4968561;28;20043;-70
2022/11/21 11:57:30;;;;;;;3.92;2.45;;;;;;;;;;5000100;28;21190;-69
2022/11/21 12:00:21;;;;;;;6.85;1.83;;;;;;;;;;4965983;28;20528;-73
2022/11/21 12:02:56;;;;;;;4.05;2.13;;;;;;;;;;4985964;28;20041;-74
2022/11/21 12:05:27;;;;;;;2.13;1.15;;;;;;;;;;4966890;28;20053;-71
2022/11/21 12:08:13;;;;;;;2.15;0.70;;;;;;;;;;4981094;28;20058;-70
2022/11/21 12:18:14;;;;;;;2.30;0.73;;;;;;;;;;4993531;28;20129;-73
2022/11/21 12:21:01;;;;;;;3.53;1.00;;;;;;;;;;5000220;28;20069;-71
2022/11/21 12:23:50;;;;;;;2.10;0.68;;;;;;;;;;5002325;28;20050;-72
2022/11/21 12:26:19;;;;;;;3.10;1.00;;;;;;;;;;4999427;28;20109;-72
2022/11/21 12:28:49;;;;;;;4.00;0.90;;;;;;;;;;5000235;28;20513;-71
2022/11/21 12:31:42;;;;;;;2.22;0.93;;;;;;;;;;4996918;28;20424;-72
2022/11/21 12:34:36;;;;;;;2.97;0.90;;;;;;;;;;4979212;28;20185;-75
2022/11/21 12:37:15;;;;;;;5.53;1.40;;;;;;;;;;4995305;28;20050;-66
2022/11/21 12:39:47;;;;;;;5.45;1.52;;;;;;;;;;4999287;28;20448;-68
2022/11/21 12:42:50;;;;;;;2.78;1.13;;;;;;;;;;4997505;28;20096;-68
2022/11/21 12:45:28;;;;;;;4.68;0.90;;;;;;;;;;4994129;28;20046;-68
2022/11/21 12:56:56;;;;;;;6.05;2.35;;;;;;;;;;5002258;28;20186;-66
2022/11/21 12:59:23;;;;;;;7.75;3.22;;;;;;;;;;4995012;28;20053;-67
2022/11/21 13:02:02;;;;;;;8.80;2.30;;;;;;;;;;4996979;28;20045;-66
2022/11/21 13:04:31;;;;;;;5.25;1.40;;;;;;;;;;4980390;28;20409;-67
2022/11/21 13:06:57;;;;;;;3.70;1.00;;;;;;;;;;4965106;28;20465;-66
2022/11/21 13:09:25;;;;;;;4.20;1.30;;;;;;;;;;4997612;28;20492;-67
2022/11/21 13:11:58;;;;;;;3.80;0.73;;;;;;;;;;4978054;28;20043;-67
2022/11/21 13:14:40;;;;;;;2.92;1.00;;;;;;;;;;4980214;28;20081;-66
2022/11/21 13:17:28;;;;;;;2.17;1.00;;;;;;;;;;4994863;28;20146;-67
2022/11/21 13:20:04;;;;;;;6.53;1.65;;;;;;;;;;4978198;28;20137;-67
2022/11/21 13:22:34;;;;;;;3.15;1.17;;;;;;;;;;4977744;28;20046;-67
2022/11/21 13:25:20;;;;;;;2.83;0.80;;;;;;;;;;4997104;28;20057;-67
2022/11/21 13:27:46;;;;;;;5.65;0.80;;;;;;;;;;4994421;28;20054;-66
2022/11/21 13:30:14;;;;;;;3.97;0.80;;;;;;;;;;4961649;28;20120;-66
2022/11/21 13:32:41;;;;;;;2.53;0.80;;;;;;;;;;4998764;28;20050;-67
2022/11/21 13:35:20;;;;;;;3.05;0.60;;;;;;;;;;4981238;28;20077;-68
2022/11/21 13:38:04;;;;;;;4.28;0.90;;;;;;;;;;4999018;28;20065;-65
2022/11/21 13:40:36;;;;;;;4.40;1.67;;;;;;;;;;4978510;28;20564;-66
2022/11/21 13:43:09;;;;;;;3.20;0.80;;;;;;;;;;5000322;28;20424;-66
2022/11/21 13:45:58;;;;;;;2.35;0.68;;;;;;;;;;4997212;28;20156;-66
2022/11/21 13:48:29;;;;;;;4.18;0.70;;;;;;;;;;4980600;28;20119;-65
2022/11/21 13:51:23;;;;;;;2.17;0.60;;;;;;;;;;4998469;28;20042;-66
2022/11/21 13:54:22;;;;;;;4.65;1.00;;;;;;;;;;4983964;28;20057;-66
2022/11/21 13:57:07;;;;;;;10.18;3.42;;;;;;;;;;4984994;28;20150;-66
2022/11/21 13:59:43;;;;;;;3.05;1.10;;;;;;;;;;4997292;28;20074;-66
2022/11/21 14:02:28;;;;;;;3.83;1.30;;;;;;;;;;4997532;28;20050;-66
2022/11/21 14:05:34;;;;;;;3.47;0.68;;;;;;;;;;5008321;28;20078;-65
2022/11/21 14:08:23;;;;;;;6.68;0.95;;;;;;;;;;4984284;28;20385;-66
2022/11/21 14:10:51;;;;;;;4.38;1.65;;;;;;;;;;4982857;28;20108;-65
2022/11/21 14:13:32;;;;;;;2.17;1.02;;;;;;;;;;4987558;28;20075;-66
2022/11/21 14:16:14;;;;;;;3.65;0.90;;;;;;;;;;4969140;28;20069;-64
2022/11/21 14:18:42;;;;;;;3.67;0.73;;;;;;;;;;5000434;28;20101;-66
2022/11/21 14:21:26;;;;;;;1.38;0.75;;;;;;;;;;4988372;28;20112;-65
2022/11/21 14:24:03;;;;;;;3.05;1.17;;;;;;;;;;4986625;28;20054;-67
2022/11/21 14:26:33;;;;;;;3.33;1.00;;;;;;;;;;5000488;28;20113;-65
2022/11/21 14:29:25;;;;;;;3.63;1.02;;;;;;;;;;5011387;28;20394;-66
2022/11/21 14:31:52;;;;;;;3.03;1.15;;;;;;;;;;4997527;28;20595;-65
2022/11/21 14:34:27;;;;;;;3.63;1.00;;;;;;;;;;5014867;28;20140;-66
2022/11/21 14:36:56;;;;;;;3.28;0.82;;;;;;;;;;5003802;28;20159;-66
2022/11/21 14:39:27;;;;;;;3.10;0.88;;;;;;;;;;4989871;28;20132;-71
2022/11/21 14:42:09;;;;;;;2.92;1.05;;;;;;;;;;4991858;28;20056;-66
2022/11/21 14:44:36;;;;;;;3.25;1.00;;;;;;;;;;4993412;28;20043;-65
2022/11/21 14:47:18;;;;;;;3.00;0.80;;;;;;;;;;4984622;28;20096;-67
2022/11/21 14:49:53;;;;;;;5.50;1.85;;;;;;;;;;4999473;28;20054;-66
2022/11/21 14:52:27;;;;;;;4.80;1.00;;;;;;;;;;5006663;28;20102;-66
2022/11/21 14:54:55;;;;;;;2.95;1.33;;;;;;;;;;4990273;28;20050;-66
2022/11/21 14:57:42;;;;;;;3.10;1.08;;;;;;;;;;4999448;28;20450;-65
2022/11/21 15:00:13;;;;;;;4.75;1.23;;;;;;;;;;4972717;28;20416;-67
2022/11/21 15:03:01;;;;;;;6.80;2.08;;;;;;;;;;4987196;28;20132;-72
2022/11/21 15:05:30;;;;;;;6.18;1.00;;;;;;;;;;4995547;28;20112;-75
2022/11/21 15:08:25;;;;;;;2.28;0.80;;;;;;;;;;4999979;28;20137;-74
2022/11/21 15:11:13;;;;;;;4.22;1.27;;;;;;;;;;4982386;28;20085;-74
2022/11/21 15:13:39;;;;;;;5.30;1.30;;;;;;;;;;4997286;28;20132;-74
2022/11/21 15:16:26;;;;;;;4.60;1.00;;;;;;;;;;4987664;28;20129;-71
2022/11/21 15:18:52;;;;;;;7.32;1.75;;;;;;;;;;4997816;28;20429;-69
2022/11/21 15:21:19;;;;;;;5.72;1.13;;;;;;;;;;5000163;28;20054;-72
2022/11/21 15:23:46;;;;;;;4.20;1.10;;;;;;;;;;4998665;28;20046;-70
2022/11/21 15:26:29;;;;;;;7.32;1.60;;;;;;;;;;4982802;28;20047;-73
2022/11/21 15:28:57;;;;;;;5.20;1.52;;;;;;;;;;5000785;28;20050;-73
2022/11/21 15:31:24;;;;;;;5.32;2.17;;;;;;;;;;5001982;28;20565;-70
2022/11/21 15:34:04;;;;;;;4.75;1.95;;;;;;;;;;4983201;28;20081;-73
2022/11/21 15:37:16;;;;;;;5.90;2.25;;;;;;;;;;5004247;28;20054;-73
2022/11/21 15:39:43;;;;;;;5.30;2.08;;;;;;;;;;5004403;28;20051;-72
2022/11/21 15:42:32;;;;;;;4.65;1.88;;;;;;;;;;4981056;28;20104;-70
2022/11/21 15:45:24;;;;;;;7.35;2.13;;;;;;;;;;4997748;28;20050;-68
2022/11/21 15:47:51;;;;;;;3.00;2.00;;;;;;;;;;5004375;28;20533;-68
2022/11/21 15:50:17;;;;;;;7.47;1.92;;;;;;;;;;4997592;28;20077;-68
2022/11/21 15:52:48;;;;;;;4.50;2.13;;;;;;;;;;5000083;28;20072;-73